Terminal Aerodrome Forecast
Issued by NWS Greer, SC

Home | Current Version | Previous Version | Text Only | Print | Product List | Glossary On
Versions: 1 2 3 4 5 6 7 8 9 10 11 12 13 14 15 16 17 18 19
000
FTUS42 KGSP 201740
TAFAVL
TAF
KAVL 201740Z 2018/2118 34004KT P6SM SCT020
      TEMPO 2018/2022 BKN020
     FM210100 19003KT P6SM BKN025
     FM210700 00000KT 4SM BR BKN015
     FM210900 00000KT 1/2SM FG BKN002
     FM211400 00000KT 6SM BR SCT006 OVC020 PROB30 2114/2118 4SM
      -SHRA BR OVC006=

USA.gov is the U.S. government's official web portal to all federal, state and local government web resources and services.